Overview Statistics Trail Chart Weather Telemetry Raw packets
 

This is the latest recevied weather packets stored in our database for station/object PE1RXF-13. If no packets are shown the sender has not sent any weather packets the latest 10 day(s).

<< 11 12 13 14 15 16 17 >>
Time Temp. Humidity Pressure Rain* Wind** Luminosity Snow
1788352362 22.78° C 79% 1017.7 hPa 0 mm - 27 W/m² -
1788351259 22.78° C 85% 1017.6 hPa 0 mm - 84 W/m² -
1788350156 22.78° C 85% 1017.7 hPa 0 mm - 62 W/m² -
1788349053 21.11° C 93% 1017.9 hPa 0 mm - 56 W/m² -
1788346847 24.44° C 74% 1017.9 hPa 0 mm - 83 W/m² -
1788345744 24.44° C 73% 1018 hPa 0 mm - 174 W/m² -
1788344641 22.78° C 85% 1017.9 hPa 0 mm - 214 W/m² -
1788343538 23.33° C 81% 1018 hPa 0 mm - 113 W/m² -
1788342435 23.89° C 83% 1018 hPa 0 mm - 47 W/m² -
1788341332 23.89° C 83% 1018.1 hPa 0 mm - 148 W/m² -
1788340229 23.33° C 87% 1018 hPa 0 mm - 134 W/m² -
1788339126 22.78° C 86% 1018 hPa 0 mm - 126 W/m² -
1788338023 22.22° C 86% 1018 hPa 0 mm - 107 W/m² -
1788336920 20.56° C 93% 1017.8 hPa 0 mm - 96 W/m² -
1788335817 20.56° C 89% 1017.8 hPa 0 mm - 68 W/m² -
1788334714 20° C 91% 1017.7 hPa 0 mm - 79 W/m² -
1788333611 19.44° C 95% 1017.8 hPa 0 mm - 65 W/m² -
1788332508 17.22° C 99% 1017.8 hPa 0 mm - 29 W/m² -
1788331405 17.22° C 99% 1017.7 hPa 0 mm - 36 W/m² -
1788330302 13.89° C 99% 1017.7 hPa 0 mm - 33 W/m² -
1788329199 13.33° C 99% 1017.8 hPa 0 mm - 26 W/m² -
1788328096 12.22° C 99% 1017.9 hPa 0 mm - 18 W/m² -
1788326993 11.67° C 99% 1017.8 hPa 0 mm - 5 W/m² -
1788325890 11.67° C 99% 1017.8 hPa 0 mm - 3 W/m² -
1788324787 11.67° C 99% 1017.8 hPa 0 mm - 1 W/m² -

* Rain latest hour (hover to see other rain measurements)
** Current wind speed in m/s (hover to see current wind gust speed)